createdAt,value
2018-07-06T00:02:30.629Z,94141.14
2018-07-06T00:05:10.432Z,94147.16
2018-07-06T00:07:50.414Z,94143.75
2018-07-06T00:10:30.582Z,94138.50
2018-07-06T00:13:10.523Z,94140.86
2018-07-06T00:15:52.058Z,94142.20
2018-07-06T00:18:32.378Z,94134.07
2018-07-06T00:21:12.228Z,94138.79
2018-07-06T00:23:52.491Z,94132.46
2018-07-06T00:26:32.584Z,94131.15
2018-07-06T00:29:12.507Z,94128.28
2018-07-06T00:31:52.392Z,94126.67
2018-07-06T00:34:33.309Z,94118.52
2018-07-06T00:37:13.247Z,94116.68
2018-07-06T00:39:53.332Z,94119.05
2018-07-06T00:42:33.360Z,94125.06
2018-07-06T00:45:13.429Z,94120.38
2018-07-06T00:47:53.885Z,94116.37
2018-07-06T00:50:33.930Z,94119.81
2018-07-06T00:53:14.195Z,94117.98
2018-07-06T00:55:54.322Z,94116.39
2018-07-06T00:58:34.823Z,94118.77
2018-07-06T01:01:14.624Z,94111.45
2018-07-06T01:03:54.614Z,94116.17
2018-07-06T01:06:34.721Z,94108.27
2018-07-06T01:09:14.714Z,94114.29
2018-07-06T01:11:54.611Z,94110.89
2018-07-06T01:14:34.616Z,94109.81
2018-07-06T01:17:16.567Z,94108.52
2018-07-06T01:19:57.383Z,94109.03
2018-07-06T01:22:38.295Z,94111.13
2018-07-06T01:25:18.549Z,94116.13
2018-07-06T01:27:58.452Z,94110.30
2018-07-06T01:30:38.416Z,94110.59
2018-07-06T01:33:18.363Z,94106.14
2018-07-06T01:35:58.316Z,94112.45
2018-07-06T01:38:38.416Z,94103.78
2018-07-06T01:41:18.405Z,94096.96
2018-07-06T01:43:58.258Z,94091.95
2018-07-06T01:46:38.643Z,94095.13
2018-07-06T01:49:18.905Z,94089.08
2018-07-06T01:51:59.035Z,94084.09
2018-07-06T01:54:39.208Z,94081.73
2018-07-06T01:57:19.782Z,94086.71
2018-07-06T01:59:59.746Z,94086.72
2018-07-06T02:02:40.159Z,94085.61
2018-07-06T02:05:20.245Z,94086.63
2018-07-06T02:08:00.168Z,94083.75
2018-07-06T02:10:40.360Z,94087.24
2018-07-06T02:13:20.312Z,94084.58
2018-07-06T02:16:00.499Z,94082.00
2018-07-06T02:18:40.742Z,94079.64
2018-07-06T02:21:20.758Z,94078.60
2018-07-06T02:24:01.717Z,94083.83
2018-07-06T02:26:41.585Z,94079.64
2018-07-06T02:29:21.539Z,94079.27
2018-07-06T02:32:01.685Z,94082.44
2018-07-06T02:34:42.035Z,94072.48
2018-07-06T02:37:22.294Z,94079.10
2018-07-06T02:40:02.470Z,94081.95
2018-07-06T02:42:42.657Z,94083.05
2018-07-06T02:45:22.674Z,94090.94
2018-07-06T02:48:02.730Z,94089.60
2018-07-06T02:50:42.641Z,94087.99
2018-07-06T02:53:23.130Z,94084.62
2018-07-06T02:56:03.406Z,94086.19
2018-07-06T02:58:43.427Z,94083.74
2018-07-06T03:01:23.509Z,94088.73
2018-07-06T03:04:03.647Z,94085.87
2018-07-06T03:06:43.561Z,94089.52
2018-07-06T03:09:23.548Z,94092.94
2018-07-06T03:12:03.602Z,94096.91
2018-07-06T03:14:43.398Z,94098.27
2018-07-06T03:17:23.938Z,94095.03
2018-07-06T03:20:03.927Z,94096.36
2018-07-06T03:22:44.878Z,94094.23
2018-07-06T03:25:25.114Z,94097.65
2018-07-06T03:28:05.056Z,94102.38
2018-07-06T03:30:44.799Z,94094.06
2018-07-06T03:33:25.358Z,94097.73
2018-07-06T03:36:05.396Z,94103.98
2018-07-06T03:38:45.527Z,94100.58
2018-07-06T03:41:25.644Z,94100.58
2018-07-06T03:44:05.988Z,94098.44
2018-07-06T03:46:46.131Z,94097.94
2018-07-06T03:49:26.182Z,94096.88
2018-07-06T03:52:06.212Z,94106.32
2018-07-06T03:54:47.026Z,94106.83
2018-07-06T03:57:27.171Z,94103.95
2018-07-06T04:00:07.138Z,94111.55
2018-07-06T04:02:47.147Z,94108.13
2018-07-06T04:05:27.211Z,94115.23
2018-07-06T04:08:07.116Z,94107.91
2018-07-06T04:10:47.137Z,94108.58
2018-07-06T04:13:27.278Z,94114.05
2018-07-06T04:16:07.484Z,94114.31
2018-07-06T04:18:47.421Z,94115.92
2018-07-06T04:21:27.453Z,94111.48
2018-07-06T04:24:07.513Z,94115.67
2018-07-06T04:26:47.455Z,94119.53
2018-07-06T04:29:27.693Z,94114.62
2018-07-06T04:32:07.724Z,94115.16
2018-07-06T04:34:47.912Z,94111.99
2018-07-06T04:37:27.659Z,94111.22
2018-07-06T04:40:07.698Z,94110.72
2018-07-06T04:42:47.517Z,94109.13
2018-07-06T04:45:27.299Z,94105.77
2018-07-06T04:48:07.545Z,94111.55
2018-07-06T04:50:47.793Z,94112.78
2018-07-06T04:53:28.164Z,94118.59
2018-07-06T04:56:08.195Z,94122.25
2018-07-06T04:58:48.087Z,94127.46
2018-07-06T05:01:28.140Z,94132.88
2018-07-06T05:04:07.960Z,94129.05
2018-07-06T05:06:48.234Z,94126.75
2018-07-06T05:09:28.154Z,94124.08
2018-07-06T05:12:08.174Z,94128.97
2018-07-06T05:14:48.303Z,94129.52
2018-07-06T05:17:28.412Z,94129.52
2018-07-06T05:20:08.612Z,94132.97
2018-07-06T05:22:48.722Z,94133.01
2018-07-06T05:25:29.133Z,94142.86
2018-07-06T05:28:09.304Z,94139.88
2018-07-06T05:30:49.379Z,94143.74
2018-07-06T05:33:30.165Z,94141.20
2018-07-06T05:36:10.413Z,94148.78
2018-07-06T05:38:50.598Z,94148.59
2018-07-06T05:41:31.184Z,94156.05
2018-07-06T05:44:11.331Z,94151.40
2018-07-06T05:46:51.344Z,94150.41
2018-07-06T05:49:32.558Z,94157.98
2018-07-06T05:52:12.620Z,94154.86
2018-07-06T05:54:52.765Z,94156.42
2018-07-06T05:57:32.854Z,94160.02
2018-07-06T06:00:13.028Z,94157.96
2018-07-06T06:02:52.957Z,94165.87
2018-07-06T06:05:32.839Z,94162.27
2018-07-06T06:08:00.799Z,94161.99
2018-07-06T06:10:30.264Z,94156.52
2018-07-06T06:12:59.723Z,94164.14
2018-07-06T06:15:29.210Z,94163.64
2018-07-06T06:17:59.183Z,94166.74
2018-07-06T06:20:28.667Z,94169.44
2018-07-06T06:22:58.202Z,94171.44
2018-07-06T06:25:28.604Z,94170.14
2018-07-06T06:27:57.971Z,94169.66
2018-07-06T06:30:27.432Z,94173.55
2018-07-06T06:32:56.830Z,94173.84
2018-07-06T06:35:26.471Z,94177.23
2018-07-06T06:37:56.668Z,94177.31
2018-07-06T06:40:26.130Z,94179.41
2018-07-06T06:42:55.612Z,94186.26
2018-07-06T06:45:25.067Z,94180.20
2018-07-06T06:47:54.588Z,94177.60
2018-07-06T06:50:24.175Z,94177.09
2018-07-06T06:52:53.683Z,94179.48
2018-07-06T06:55:23.201Z,94182.11
2018-07-06T06:57:52.631Z,94172.17
2018-07-06T07:00:27.484Z,94173.97
2018-07-06T07:02:51.601Z,94179.25
2018-07-06T07:05:21.113Z,94169.83
2018-07-06T07:07:50.710Z,94176.16
2018-07-06T07:10:20.133Z,94169.65
2018-07-06T07:12:49.744Z,94173.26
2018-07-06T07:15:19.166Z,94171.42
2018-07-06T07:17:49.382Z,94169.59
2018-07-06T07:20:18.692Z,94166.48
2018-07-06T07:22:48.063Z,94163.36
2018-07-06T07:25:17.461Z,94164.69
2018-07-06T07:27:46.846Z,94162.83
2018-07-06T07:30:16.859Z,94157.33
2018-07-06T07:32:46.605Z,94161.80
2018-07-06T07:35:16.358Z,94163.37
2018-07-06T07:37:46.000Z,94165.25
2018-07-06T07:40:15.343Z,94164.45
2018-07-06T07:42:44.962Z,94164.91
2018-07-06T07:45:14.363Z,94171.39
2018-07-06T07:47:43.726Z,94172.48
2018-07-06T07:50:13.147Z,94169.92
2018-07-06T07:52:53.252Z,94173.38
2018-07-06T07:55:22.955Z,94170.19
2018-07-06T07:57:52.414Z,94170.21
2018-07-06T08:00:21.897Z,94173.06
2018-07-06T08:02:51.088Z,94175.48
2018-07-06T08:05:20.628Z,94173.32
2018-07-06T08:07:51.054Z,94173.59
2018-07-06T08:10:21.267Z,94177.00
2018-07-06T08:12:50.850Z,94177.79
2018-07-06T08:15:20.395Z,94184.14
2018-07-06T08:17:49.821Z,94180.47
2018-07-06T08:20:19.301Z,94184.35
2018-07-06T08:22:48.606Z,94187.50
2018-07-06T08:25:18.138Z,94184.44
2018-07-06T08:27:47.954Z,94190.69
2018-07-06T08:30:17.393Z,94184.94
2018-07-06T08:32:47.240Z,94188.39
2018-07-06T08:35:28.445Z,94183.63
2018-07-06T08:38:02.845Z,94194.40
2018-07-06T08:40:32.351Z,94192.80
2018-07-06T08:43:03.633Z,94193.09
2018-07-06T08:45:34.367Z,94194.94
2018-07-06T08:48:05.289Z,94194.20
2018-07-06T08:50:34.674Z,94196.78
2018-07-06T08:53:04.646Z,94197.55
2018-07-06T08:55:35.001Z,94192.86
2018-07-06T08:58:04.484Z,94193.64
2018-07-06T09:00:34.042Z,94192.61
2018-07-06T09:03:03.437Z,94191.55
2018-07-06T09:05:32.823Z,94197.05
2018-07-06T09:08:02.445Z,94196.57
2018-07-06T09:10:31.678Z,94198.95
2018-07-06T09:13:01.130Z,94200.52
2018-07-06T09:15:32.143Z,94198.69
2018-07-06T09:18:02.077Z,94202.13
2018-07-06T09:20:31.566Z,94201.06
2018-07-06T09:23:01.929Z,94205.54
2018-07-06T09:25:31.457Z,94205.50
2018-07-06T09:28:00.921Z,94205.23
2018-07-06T09:30:30.489Z,94204.19
2018-07-06T09:33:00.068Z,94209.70
2018-07-06T09:35:29.495Z,94205.48
2018-07-06T09:37:58.830Z,94206.86
2018-07-06T09:40:28.668Z,94210.53
2018-07-06T09:42:58.114Z,94204.80
2018-07-06T09:45:27.582Z,94209.22
2018-07-06T09:47:57.102Z,94208.98
2018-07-06T09:50:27.819Z,94208.72
2018-07-06T09:52:57.188Z,94211.87
2018-07-06T09:55:26.858Z,94211.88
2018-07-06T09:57:56.227Z,94211.62
2018-07-06T10:00:30.647Z,94210.55
2018-07-06T10:03:00.097Z,94210.84
2018-07-06T10:05:30.426Z,94209.75
2018-07-06T10:08:01.076Z,94207.63
2018-07-06T10:10:30.395Z,94211.59
2018-07-06T10:13:00.932Z,94209.20
2018-07-06T10:15:32.732Z,94208.20
2018-07-06T10:18:02.074Z,94215.34
2018-07-06T10:20:31.702Z,94215.82
2018-07-06T10:23:01.075Z,94218.17
2018-07-06T10:25:30.363Z,94220.29
2018-07-06T10:28:13.905Z,94224.26
2018-07-06T10:31:23.522Z,94225.57
2018-07-06T10:33:52.680Z,94224.82
2018-07-06T10:36:21.923Z,94226.13
2018-07-06T10:38:51.303Z,94227.69
2018-07-06T10:41:20.817Z,94222.19
2018-07-06T10:43:50.442Z,94225.35
2018-07-06T10:46:19.599Z,94229.05
2018-07-06T10:48:48.884Z,94224.30
2018-07-06T10:51:18.057Z,94228.78
2018-07-06T10:53:48.781Z,94223.77
2018-07-06T10:56:17.963Z,94231.67
2018-07-06T10:58:47.932Z,94226.38
2018-07-06T11:01:17.407Z,94224.82
2018-07-06T11:03:46.840Z,94229.31
2018-07-06T11:06:16.282Z,94226.68
2018-07-06T11:08:46.596Z,94224.05
2018-07-06T11:11:16.059Z,94221.68
2018-07-06T11:13:45.635Z,94226.94
2018-07-06T11:16:15.988Z,94226.66
2018-07-06T11:18:45.282Z,94225.35
2018-07-06T11:21:15.255Z,94230.89
2018-07-06T11:23:44.866Z,94228.00
2018-07-06T11:26:14.910Z,94223.23
2018-07-06T11:28:44.322Z,94226.41
2018-07-06T11:31:14.678Z,94226.41
2018-07-06T11:33:44.699Z,94228.49
2018-07-06T11:36:14.090Z,94224.81
2018-07-06T11:38:43.537Z,94226.39
2018-07-06T11:41:13.116Z,94226.91
2018-07-06T11:43:42.514Z,94223.76
2018-07-06T11:46:11.814Z,94224.52
2018-07-06T11:48:41.286Z,94222.94
2018-07-06T11:51:10.812Z,94225.30
2018-07-06T11:53:40.174Z,94220.83
2018-07-06T11:56:09.791Z,94225.07
2018-07-06T11:58:39.262Z,94222.14
2018-07-06T12:01:08.650Z,94216.36
2018-07-06T12:03:38.179Z,94221.88
2018-07-06T12:06:08.295Z,94222.14
2018-07-06T12:08:37.909Z,94221.36
2018-07-06T12:11:07.140Z,94218.20
2018-07-06T12:13:36.937Z,94225.30
2018-07-06T12:16:06.274Z,94223.46
2018-07-06T12:18:35.777Z,94224.02
2018-07-06T12:21:05.302Z,94217.41
2018-07-06T12:23:34.648Z,94226.09
2018-07-06T12:26:04.111Z,94224.78
2018-07-06T12:28:33.587Z,94224.55
2018-07-06T12:31:03.111Z,94225.83
2018-07-06T12:33:32.402Z,94225.30
2018-07-06T12:36:01.913Z,94226.35
2018-07-06T12:38:31.393Z,94227.92
2018-07-06T12:41:00.824Z,94225.81
2018-07-06T12:43:31.119Z,94229.50
2018-07-06T12:46:01.500Z,94228.19
2018-07-06T12:48:31.826Z,94228.45
2018-07-06T12:51:01.253Z,94224.77
2018-07-06T12:53:30.710Z,94221.88
2018-07-06T12:56:00.285Z,94221.08
2018-07-06T12:58:29.882Z,94225.53
2018-07-06T13:00:59.481Z,94225.30
2018-07-06T13:03:28.937Z,94228.72
2018-07-06T13:05:58.503Z,94219.78
2018-07-06T13:08:27.841Z,94218.20
2018-07-06T13:10:57.142Z,94221.63
2018-07-06T13:13:26.660Z,94222.41
2018-07-06T13:15:56.082Z,94218.46
2018-07-06T13:18:25.731Z,94222.14
2018-07-06T13:20:55.599Z,94219.78
2018-07-06T13:23:24.818Z,94221.09
2018-07-06T13:25:54.239Z,94222.97
2018-07-06T13:28:24.211Z,94222.67
2018-07-06T13:30:53.893Z,94223.98
2018-07-06T13:33:23.762Z,94223.98
2018-07-06T13:35:53.157Z,94221.09
2018-07-06T13:38:22.662Z,94220.82
2018-07-06T13:40:51.985Z,94225.30
2018-07-06T13:43:21.366Z,94225.03
2018-07-06T13:45:50.816Z,94222.66
2018-07-06T13:48:20.382Z,94220.81
2018-07-06T13:50:50.220Z,94220.27
2018-07-06T13:53:19.905Z,94228.97
2018-07-06T13:55:49.469Z,94229.23
2018-07-06T13:58:18.898Z,94225.24
2018-07-06T14:00:48.324Z,94224.98
2018-07-06T14:03:18.039Z,94218.37
2018-07-06T14:05:47.553Z,94224.38
2018-07-06T14:08:17.006Z,94224.11
2018-07-06T14:10:46.449Z,94222.26
2018-07-06T14:13:15.899Z,94219.62
2018-07-06T14:15:45.079Z,94219.62
2018-07-06T14:18:14.450Z,94220.34
2018-07-06T14:20:43.778Z,94215.86
2018-07-06T14:23:13.089Z,94212.70
2018-07-06T14:25:42.498Z,94214.78
2018-07-06T14:28:11.927Z,94215.03
2018-07-06T14:30:41.261Z,94218.16
2018-07-06T14:33:10.795Z,94221.38
2018-07-06T14:35:40.332Z,94216.55
2018-07-06T14:38:09.756Z,94216.28
2018-07-06T14:40:39.218Z,94208.87
2018-07-06T14:43:08.665Z,94217.58
2018-07-06T14:45:38.035Z,94220.20
2018-07-06T14:48:07.630Z,94217.17
2018-07-06T14:50:37.076Z,94216.88
2018-07-06T14:53:09.226Z,94225.60
2018-07-06T14:55:39.148Z,94220.26
2018-07-06T14:58:08.799Z,94221.00
2018-07-06T15:00:39.693Z,94223.95
2018-07-06T15:03:09.309Z,94222.09
2018-07-06T15:05:38.719Z,94218.98
2018-07-06T15:08:08.507Z,94222.38
2018-07-06T15:10:39.441Z,94225.08
2018-07-06T15:13:09.018Z,94228.25
2018-07-06T15:15:38.538Z,94230.89
2018-07-06T15:18:08.006Z,94236.67
2018-07-06T15:20:37.438Z,94233.52
2018-07-06T15:23:07.323Z,94228.83
2018-07-06T15:25:36.705Z,94237.80
2018-07-06T15:28:06.560Z,94233.84
2018-07-06T15:30:36.039Z,94232.74
2018-07-06T15:33:07.778Z,94233.33
2018-07-06T15:35:37.249Z,94233.64
2018-07-06T15:38:06.769Z,94234.39
2018-07-06T15:40:37.420Z,94233.33
2018-07-06T15:43:07.293Z,94230.42
2018-07-06T15:45:36.611Z,94237.80
2018-07-06T15:48:06.265Z,94235.97
2018-07-06T15:50:36.168Z,94235.96
2018-07-06T15:53:05.632Z,94240.55
2018-07-06T15:55:35.894Z,94236.34
2018-07-06T15:58:05.675Z,94240.81
2018-07-06T16:00:35.745Z,94236.55
2018-07-06T16:03:06.884Z,94238.67
2018-07-06T16:05:36.463Z,94236.55
2018-07-06T16:08:06.003Z,94239.20
2018-07-06T16:10:35.565Z,94236.83
2018-07-06T16:13:05.106Z,94236.60
2018-07-06T16:15:35.145Z,94237.66
2018-07-06T16:18:04.641Z,94236.88
2018-07-06T16:20:34.204Z,94239.25
2018-07-06T16:23:03.620Z,94243.47
2018-07-06T16:25:33.135Z,94247.67
2018-07-06T16:28:03.305Z,94249.78
2018-07-06T16:30:32.800Z,94247.94
2018-07-06T16:33:02.819Z,94254.25
2018-07-06T16:35:32.406Z,94249.25
2018-07-06T16:38:01.859Z,94253.20
2018-07-06T16:40:31.716Z,94250.86
2018-07-06T16:43:01.695Z,94257.97
2018-07-06T16:45:31.320Z,94257.69
2018-07-06T16:48:01.053Z,94253.48
2018-07-06T16:50:30.777Z,94265.09
2018-07-06T16:53:00.162Z,94266.90
2018-07-06T16:55:29.725Z,94272.16
2018-07-06T16:57:59.495Z,94271.64
2018-07-06T17:00:29.772Z,94277.97
2018-07-06T17:02:59.232Z,94281.64
2018-07-06T17:05:29.367Z,94283.48
2018-07-06T17:07:58.890Z,94275.85
2018-07-06T17:10:28.363Z,94282.97
2018-07-06T17:12:58.188Z,94286.11
2018-07-06T17:15:28.780Z,94279.79
2018-07-06T17:17:58.277Z,94281.64
2018-07-06T17:20:27.674Z,94282.95
2018-07-06T17:22:57.166Z,94277.16
2018-07-06T17:25:26.584Z,94280.83
2018-07-06T17:27:56.099Z,94279.78
2018-07-06T17:30:25.743Z,94282.68
2018-07-06T17:32:55.045Z,94286.36
2018-07-06T17:35:24.444Z,94279.48
2018-07-06T17:37:54.102Z,94286.06
2018-07-06T17:40:23.769Z,94281.89
2018-07-06T17:42:53.216Z,94276.08
2018-07-06T17:45:22.717Z,94280.55
2018-07-06T17:47:52.520Z,94286.33
2018-07-06T17:50:22.052Z,94286.06
2018-07-06T17:52:51.496Z,94284.48
2018-07-06T17:55:20.988Z,94283.42
2018-07-06T17:57:50.574Z,94282.09
2018-07-06T18:00:20.055Z,94282.88
2018-07-06T18:02:50.086Z,94278.95
2018-07-06T18:05:19.486Z,94273.91
2018-07-06T18:07:49.362Z,94279.16
2018-07-06T18:10:18.796Z,94282.03
2018-07-06T18:12:49.322Z,94281.25
2018-07-06T18:15:19.309Z,94288.06
2018-07-06T18:17:48.778Z,94290.95
2018-07-06T18:20:18.415Z,94292.55
2018-07-06T18:22:48.129Z,94293.08
2018-07-06T18:25:17.455Z,94296.23
2018-07-06T18:27:46.893Z,94302.52
2018-07-06T18:30:16.307Z,94306.75
2018-07-06T18:32:45.688Z,94306.48
2018-07-06T18:35:15.052Z,94312.53
2018-07-06T18:37:44.550Z,94316.70
2018-07-06T18:40:14.462Z,94314.58
2018-07-06T18:42:43.957Z,94326.69
2018-07-06T18:45:13.413Z,94330.08
2018-07-06T18:47:42.924Z,94332.45
2018-07-06T18:50:13.476Z,94335.33
2018-07-06T18:52:43.850Z,94335.30
2018-07-06T18:55:13.281Z,94332.42
2018-07-06T18:57:43.343Z,94336.63
2018-07-06T19:00:12.836Z,94342.67
2018-07-06T19:02:42.535Z,94345.28
2018-07-06T19:05:12.887Z,94349.20
2018-07-06T19:07:43.493Z,94349.41
2018-07-06T19:10:13.108Z,94359.38
2018-07-06T19:12:43.068Z,94364.39
2018-07-06T19:15:12.464Z,94369.63
2018-07-06T19:17:41.957Z,94372.55
2018-07-06T19:20:11.502Z,94373.59
2018-07-06T19:22:41.103Z,94378.82
2018-07-06T19:25:10.699Z,94382.74
2018-07-06T19:27:40.361Z,94387.99
2018-07-06T19:30:09.589Z,94382.53
2018-07-06T19:32:39.336Z,94393.78
2018-07-06T19:35:10.548Z,94393.83
2018-07-06T19:37:40.009Z,94395.09
2018-07-06T19:40:09.623Z,94399.53
2018-07-06T19:42:39.073Z,94402.18
2018-07-06T19:45:08.797Z,94407.14
2018-07-06T19:47:38.170Z,94416.27
2018-07-06T19:50:07.796Z,94406.55
2018-07-06T19:52:37.206Z,94412.08
2018-07-06T19:55:08.102Z,94414.69
2018-07-06T19:57:37.590Z,94418.64
2018-07-06T20:00:06.976Z,94416.52
2018-07-06T20:02:37.471Z,94422.80
2018-07-06T20:05:06.865Z,94424.16
2018-07-06T20:07:35.910Z,94431.77
2018-07-06T20:10:05.252Z,94432.02
2018-07-06T20:12:34.305Z,94440.71
2018-07-06T20:15:03.606Z,94434.92
2018-07-06T20:17:32.976Z,94430.70
2018-07-06T20:20:02.470Z,94429.89
2018-07-06T20:22:32.227Z,94432.73
2018-07-06T20:25:01.911Z,94443.55
2018-07-06T20:27:32.095Z,94443.30
2018-07-06T20:30:01.855Z,94442.02
2018-07-06T20:32:31.130Z,94438.56
2018-07-06T20:35:00.621Z,94435.42
2018-07-06T20:37:29.725Z,94437.81
2018-07-06T20:40:00.471Z,94437.52
2018-07-06T20:42:29.947Z,94440.67
2018-07-06T20:44:59.041Z,94441.42
2018-07-06T20:47:29.300Z,94452.34
2018-07-06T20:49:58.579Z,94458.88
2018-07-06T20:52:27.906Z,94454.42
2018-07-06T20:54:59.251Z,94455.20
2018-07-06T20:57:29.757Z,94455.16
2018-07-06T20:59:59.285Z,94459.94
2018-07-06T21:02:28.939Z,94462.89
2018-07-06T21:04:58.621Z,94472.35
2018-07-06T21:07:28.101Z,94469.73
2018-07-06T21:09:57.701Z,94466.87
2018-07-06T21:12:26.917Z,94467.89
2018-07-06T21:14:56.081Z,94463.61
2018-07-06T21:17:25.864Z,94467.59
2018-07-06T21:19:54.971Z,94471.28
2018-07-06T21:22:25.400Z,94468.36
2018-07-06T21:24:54.804Z,94470.98
2018-07-06T21:27:23.920Z,94467.27
2018-07-06T21:29:53.143Z,94465.95
2018-07-06T21:32:22.425Z,94467.02
2018-07-06T21:34:51.668Z,94468.59
2018-07-06T21:37:20.953Z,94473.02
2018-07-06T21:39:50.453Z,94471.19
2018-07-06T21:42:21.467Z,94475.67
2018-07-06T21:44:50.710Z,94477.25
2018-07-06T21:47:20.358Z,94477.11
2018-07-06T21:49:49.886Z,94479.83
2018-07-06T21:52:19.257Z,94485.53
2018-07-06T21:54:48.742Z,94486.30
2018-07-06T21:57:18.108Z,94494.66
2018-07-06T21:59:47.201Z,94497.56
2018-07-06T22:02:17.279Z,94501.53
2018-07-06T22:04:47.974Z,94503.36
2018-07-06T22:07:17.934Z,94499.17
2018-07-06T22:09:47.433Z,94502.32
2018-07-06T22:12:17.665Z,94503.45
2018-07-06T22:14:46.783Z,94510.31
2018-07-06T22:17:16.172Z,94513.28
2018-07-06T22:19:45.441Z,94518.55
2018-07-06T22:22:14.693Z,94517.22
2018-07-06T22:24:44.087Z,94515.59
2018-07-06T22:27:14.135Z,94518.71
2018-07-06T22:29:44.563Z,94514.53
2018-07-06T22:32:13.992Z,94510.77
2018-07-06T22:34:43.446Z,94513.44
2018-07-06T22:37:12.816Z,94519.78
2018-07-06T22:39:42.141Z,94521.91
2018-07-06T22:42:12.721Z,94523.23
2018-07-06T22:44:42.217Z,94523.16
2018-07-06T22:47:12.435Z,94518.73
2018-07-06T22:49:41.813Z,94517.09
2018-07-06T22:52:11.068Z,94516.33
2018-07-06T22:54:40.488Z,94514.89
2018-07-06T22:57:09.925Z,94522.73
2018-07-06T22:59:39.366Z,94520.59
2018-07-06T23:02:09.099Z,94529.84
2018-07-06T23:04:38.330Z,94526.88
2018-07-06T23:07:07.814Z,94522.45
2018-07-06T23:09:37.033Z,94526.08
2018-07-06T23:12:06.444Z,94534.29
2018-07-06T23:14:35.954Z,94535.33
2018-07-06T23:17:05.321Z,94526.88
2018-07-06T23:19:34.646Z,94529.50
2018-07-06T23:22:04.092Z,94528.59
2018-07-06T23:24:33.529Z,94529.84
2018-07-06T23:27:02.622Z,94530.25
2018-07-06T23:29:31.891Z,94527.63
2018-07-06T23:32:01.844Z,94527.80
2018-07-06T23:34:31.380Z,94534.02
2018-07-06T23:37:00.743Z,94528.84
2018-07-06T23:39:30.306Z,94534.12
2018-07-06T23:41:59.500Z,94529.32
2018-07-06T23:44:28.947Z,94525.45
2018-07-06T23:46:58.134Z,94526.45
2018-07-06T23:49:27.486Z,94523.56
2018-07-06T23:51:56.724Z,94525.45
2018-07-06T23:54:26.123Z,94526.49
2018-07-06T23:56:55.429Z,94525.11
2018-07-06T23:59:24.664Z,94524.56
